Time;durP1;ratioP1;P1;durP2;ratioP2;P2;SDS_P1;SDS_P2;PMS_P1;PMS_P2;Temp;Humidity;BMP_temperature;BMP_pressure;BME280_temperature;BME280_humidity;BME280_pressure;Samples;Min_cycle;Max_cycle;Signal;HPM_P1;HPM_P2
2022/04/23 00:01:03;;;;;;;11.05;6.95;;;;;;;6.65;93.28;100731.41;5094968;28;20040;-73
2022/04/23 00:03:29;;;;;;;9.80;7.30;;;;;;;6.60;93.54;100729.09;5095010;28;20067;-73
2022/04/23 00:05:54;;;;;;;11.35;7.93;;;;;;;6.59;94.06;100731.88;5095379;28;20039;-71
2022/04/23 00:08:19;;;;;;;9.98;7.75;;;;;;;6.57;94.68;100728.47;5060750;28;20063;-72
2022/04/23 00:10:45;;;;;;;11.45;7.43;;;;;;;6.57;94.82;100725.84;5095045;28;20448;-72
2022/04/23 00:13:10;;;;;;;8.60;7.03;;;;;;;6.53;94.58;100723.41;5094676;28;20056;-72
2022/04/23 00:15:39;;;;;;;9.65;8.05;;;;;;;6.52;94.73;100724.41;5094901;28;20032;-71
2022/04/23 00:18:08;;;;;;;16.63;7.43;;;;;;;6.53;94.82;100725.25;5094927;28;20040;-72
2022/04/23 00:20:35;;;;;;;8.93;6.78;;;;;;;6.57;95.33;100724.06;5076840;28;20433;-71
2022/04/23 00:23:02;;;;;;;7.20;6.32;;;;;;;6.61;95.28;100714.06;5094793;28;20035;-71
2022/04/23 00:25:28;;;;;;;9.10;7.20;;;;;;;6.69;95.43;100720.47;5094832;28;20024;-72
2022/04/23 00:27:53;;;;;;;8.10;6.95;;;;;;;6.76;95.85;100720.00;5076487;28;20073;-73
2022/04/23 00:30:19;;;;;;;9.00;7.10;;;;;;;6.79;95.64;100719.75;5094349;28;20503;-73
2022/04/23 00:32:46;;;;;;;10.50;7.32;;;;;;;6.84;95.28;100715.81;5094344;28;20043;-74
2022/04/23 00:35:18;;;;;;;9.73;7.43;;;;;;;6.90;95.24;100706.56;5076363;28;20032;-74
2022/04/23 00:37:45;;;;;;;10.93;7.70;;;;;;;6.93;94.98;100716.06;5094195;28;20059;-73
2022/04/23 00:40:17;;;;;;;11.50;7.68;;;;;;;6.95;94.67;100716.78;5095041;28;20043;-73
2022/04/23 00:43:05;;;;;;;10.73;7.88;;;;;;;6.95;94.67;100714.97;5094118;28;20060;-73
2022/04/23 00:45:31;;;;;;;10.57;8.15;;;;;;;6.91;94.63;100716.16;5094815;28;20429;-74
2022/04/23 00:47:56;;;;;;;11.10;8.27;;;;;;;6.95;95.11;100708.84;5094500;28;20055;-73
2022/04/23 00:50:22;;;;;;;13.20;7.90;;;;;;;6.98;95.53;100708.63;5076060;28;20028;-73
2022/04/23 00:52:49;;;;;;;15.82;8.32;;;;;;;7.00;95.52;100718.13;5076035;28;20032;-72
2022/04/23 00:55:16;;;;;;;16.10;8.15;;;;;;;7.06;95.18;100716.78;5093996;28;20024;-73
2022/04/23 00:57:42;;;;;;;10.88;7.63;;;;;;;7.02;95.44;100708.25;5094208;28;20059;-73
2022/04/23 01:00:09;;;;;;;12.13;8.80;;;;;;;7.04;95.08;100710.78;5094057;28;20063;-73
2022/04/23 01:02:36;;;;;;;14.07;8.40;;;;;;;7.03;95.54;100707.31;5094141;28;20035;-73
2022/04/23 01:05:02;;;;;;;9.63;7.50;;;;;;;7.04;95.44;100706.31;5094066;28;20055;-73
2022/04/23 01:07:29;;;;;;;11.60;8.70;;;;;;;7.04;95.57;100711.59;5094319;28;20032;-73
2022/04/23 01:09:54;;;;;;;11.40;8.45;;;;;;;7.10;95.44;100707.66;5094881;28;20456;-72
2022/04/23 01:12:20;;;;;;;12.45;8.38;;;;;;;7.11;95.27;100712.00;5075648;28;20074;-73
2022/04/23 01:15:08;;;;;;;12.18;8.77;;;;;;;7.11;95.15;100701.41;5093639;28;20456;-73
2022/04/23 01:17:35;;;;;;;10.82;8.38;;;;;;;7.13;95.12;100701.28;5093995;28;20415;-73
2022/04/23 01:20:05;;;;;;;13.45;8.55;;;;;;;7.10;95.08;100701.53;5093888;28;20123;-73
2022/04/23 01:22:30;;;;;;;14.13;8.95;;;;;;;7.06;94.82;100699.13;5093952;28;20032;-73
2022/04/23 01:24:57;;;;;;;14.00;10.00;;;;;;;7.05;95.53;100701.88;5075642;28;20024;-72
2022/04/23 01:27:28;;;;;;;11.25;9.00;;;;;;;7.01;95.16;100705.72;5093827;28;20028;-78
2022/04/23 01:29:55;;;;;;;16.55;10.10;;;;;;;7.02;95.81;100702.97;5075731;28;20024;-72
2022/04/23 01:32:21;;;;;;;13.38;10.18;;;;;;;7.03;96.14;100706.44;5093644;28;20032;-73
2022/04/23 01:34:46;;;;;;;11.48;9.70;;;;;;;7.01;95.91;100706.56;5075904;28;20066;-72
2022/04/23 01:37:13;;;;;;;13.32;9.60;;;;;;;7.00;95.96;100696.09;5093611;28;20419;-73
2022/04/23 01:39:39;;;;;;;12.73;9.95;;;;;;;6.97;96.40;100706.91;5075811;28;20130;-73
2022/04/23 01:42:05;;;;;;;13.52;10.85;;;;;;;6.98;96.58;100703.31;5093515;28;20495;-73
2022/04/23 01:44:30;;;;;;;13.07;11.07;;;;;;;6.97;96.51;100710.44;5074640;28;20050;-73
2022/04/23 01:46:55;;;;;;;16.10;10.98;;;;;;;6.94;96.51;100705.38;5093338;28;20129;-72
2022/04/23 01:49:21;;;;;;;13.30;10.88;;;;;;;6.91;96.37;100704.75;5093635;28;20032;-73
2022/04/23 01:51:46;;;;;;;14.85;11.43;;;;;;;6.90;96.51;100701.28;5058608;28;20028;-72
2022/04/23 01:54:11;;;;;;;14.93;11.07;;;;;;;6.88;96.64;100711.13;5092921;28;20488;-72
2022/04/23 01:56:37;;;;;;;14.00;11.48;;;;;;;6.88;96.82;100705.81;5093010;28;20503;-72
2022/04/23 01:59:02;;;;;;;16.20;11.93;;;;;;;6.86;97.14;100705.13;5093297;28;20413;-73
2022/04/23 02:01:27;;;;;;;14.60;11.85;;;;;;;6.82;97.25;100707.16;5093204;28;20186;-78
2022/04/23 02:03:53;;;;;;;19.33;11.63;;;;;;;6.86;97.70;100711.22;5075307;28;20448;-72
2022/04/23 02:06:18;;;;;;;14.35;11.85;;;;;;;6.84;97.76;100714.97;5093713;28;20099;-72
2022/04/23 02:08:44;;;;;;;17.20;11.98;;;;;;;6.81;97.65;100708.13;5075485;28;20456;-72
2022/04/23 02:11:09;;;;;;;15.20;12.30;;;;;;;6.77;97.26;100706.66;5092949;28;20581;-72
2022/04/23 02:13:34;;;;;;;18.42;12.25;;;;;;;6.76;97.67;100706.78;5092793;28;20561;-73
2022/04/23 02:16:03;;;;;;;15.70;12.32;;;;;;;6.78;98.01;100704.88;5074905;28;20233;-72
2022/04/23 02:18:29;;;;;;;16.52;13.35;;;;;;;6.77;98.62;100705.81;5092733;28;20484;-78
2022/04/23 02:20:54;;;;;;;15.90;12.45;;;;;;;6.73;98.57;100691.97;5075680;28;20052;-73
2022/04/23 02:23:20;;;;;;;18.40;12.85;;;;;;;6.76;98.81;100697.03;5092919;28;20036;-73
2022/04/23 02:25:45;;;;;;;15.73;12.85;;;;;;;6.74;99.06;100698.97;5092847;28;20131;-74
2022/04/23 02:28:11;;;;;;;17.15;13.68;;;;;;;6.76;99.44;100702.31;5092306;28;20058;-77
2022/04/23 02:30:36;;;;;;;18.25;13.05;;;;;;;6.76;99.56;100704.13;5091499;28;20334;-77
2022/04/23 02:33:01;;;;;;;17.40;13.68;;;;;;;6.80;99.67;100702.94;5091349;28;20054;-77
2022/04/23 02:35:27;;;;;;;17.50;14.05;;;;;;;6.87;99.79;100702.34;5073333;28;20047;-77
2022/04/23 02:37:56;;;;;;;17.65;13.77;;;;;;;6.94;99.57;100707.16;5091563;28;20373;-77
2022/04/23 02:40:22;;;;;;;18.17;12.75;;;;;;;6.96;99.02;100703.44;5072659;28;20126;-80
2022/04/23 02:42:50;;;;;;;19.75;13.13;;;;;;;6.98;98.94;100708.63;5091176;28;20127;-77
2022/04/23 02:45:16;;;;;;;19.20;13.20;;;;;;;6.96;98.66;100708.75;5091213;28;20048;-77
2022/04/23 02:47:45;;;;;;;17.58;13.60;;;;;;;7.02;98.72;100700.31;5072802;28;20032;-77
2022/04/23 02:50:11;;;;;;;19.20;13.27;;;;;;;7.07;98.64;100708.72;5073055;28;20040;-77
2022/04/23 02:52:37;;;;;;;16.60;13.45;;;;;;;7.09;98.27;100713.06;5091017;28;20059;-80
2022/04/23 02:55:05;;;;;;;20.40;14.13;;;;;;;7.13;98.09;100709.22;5073277;28;20055;-77
2022/04/23 02:57:31;;;;;;;22.52;14.70;;;;;;;7.17;98.36;100700.91;5094910;28;20046;-77
2022/04/23 02:59:56;;;;;;;19.13;14.82;;;;;;;7.24;98.55;100711.88;5094853;28;20024;-77
2022/04/23 03:02:21;;;;;;;22.73;14.48;;;;;;;7.35;98.50;100703.09;5095258;28;20374;-77
2022/04/23 03:04:47;;;;;;;19.05;14.32;;;;;;;7.42;98.25;100706.94;5076950;28;20028;-76
2022/04/23 03:07:12;;;;;;;19.02;14.30;;;;;;;7.58;97.74;100710.06;5094261;28;20059;-77
2022/04/23 03:09:37;;;;;;;19.60;14.43;;;;;;;7.68;97.00;100709.31;5094298;28;20032;-84
2022/04/23 03:12:04;;;;;;;21.15;14.27;;;;;;;7.76;96.42;100706.88;5076164;28;20107;-77
2022/04/23 03:14:30;;;;;;;17.20;13.60;;;;;;;7.82;95.78;100714.31;5094510;28;20090;-77
2022/04/23 03:16:56;;;;;;;16.90;13.50;;;;;;;7.81;95.02;100704.69;5076224;28;20117;-77
2022/04/23 03:19:21;;;;;;;18.58;14.00;;;;;;;7.77;95.07;100703.25;5094687;28;20456;-77
2022/04/23 03:21:46;;;;;;;21.70;14.20;;;;;;;7.70;95.00;100707.38;5076224;28;20115;-77
2022/04/23 03:24:12;;;;;;;20.25;14.35;;;;;;;7.59;94.71;100695.81;5094450;28;20453;-77
2022/04/23 03:26:37;;;;;;;19.77;14.57;;;;;;;7.53;95.30;100703.44;5094222;28;20028;-77
2022/04/23 03:29:05;;;;;;;19.10;15.68;;;;;;;7.48;95.63;100698.50;5075855;28;20524;-77
2022/04/23 03:31:30;;;;;;;21.67;15.73;;;;;;;7.46;95.84;100705.72;5093832;28;20093;-76
2022/04/23 03:33:56;;;;;;;21.13;15.48;;;;;;;7.40;96.19;100696.47;5075954;28;20488;-77
2022/04/23 03:36:21;;;;;;;20.10;15.80;;;;;;;7.34;96.22;100696.94;5094198;28;20405;-77
2022/04/23 03:38:46;;;;;;;21.92;16.58;;;;;;;7.25;96.32;100697.66;5093991;28;20040;-77
2022/04/23 03:41:12;;;;;;;23.25;17.30;;;;;;;7.15;96.52;100697.56;5093964;28;20376;-76
2022/04/23 03:43:38;;;;;;;23.42;17.88;;;;;;;7.13;97.21;100696.00;5093492;28;20488;-77
2022/04/23 03:46:03;;;;;;;22.05;17.85;;;;;;;7.12;98.12;100704.88;5094260;28;20036;-77
2022/04/23 03:48:29;;;;;;;24.02;18.27;;;;;;;7.12;98.32;100697.81;5094491;28;20040;-77
2022/04/23 03:50:55;;;;;;;24.50;17.70;;;;;;;7.15;98.54;100702.84;5093725;28;20047;-77
2022/04/23 03:53:20;;;;;;;22.05;17.30;;;;;;;7.17;98.68;100695.63;5093742;28;20039;-78
2022/04/23 03:55:46;;;;;;;23.02;18.40;;;;;;;7.21;98.92;100697.09;5093894;28;20056;-77
2022/04/23 03:58:12;;;;;;;24.52;19.35;;;;;;;7.25;99.35;100692.38;5093424;28;20114;-77
2022/04/23 04:00:37;;;;;;;27.10;19.05;;;;;;;7.28;99.38;100693.94;5093589;28;20456;-77
2022/04/23 04:03:03;;;;;;;24.40;17.90;;;;;;;7.24;98.97;100691.53;5093347;28;20142;-78
2022/04/23 04:05:28;;;;;;;24.35;19.08;;;;;;;7.23;98.92;100689.03;5075635;28;20037;-77
2022/04/23 04:07:54;;;;;;;23.45;18.65;;;;;;;7.16;98.95;100686.00;5093154;28;20036;-78
2022/04/23 04:10:22;;;;;;;25.15;20.08;;;;;;;7.17;99.38;100678.91;5093270;28;20070;-78
2022/04/23 04:12:48;;;;;;;26.80;19.23;;;;;;;7.12;99.50;100684.59;5093770;28;20028;-79
2022/04/23 04:15:17;;;;;;;26.35;19.83;;;;;;;7.05;99.36;100676.25;5093850;28;20077;-77
2022/04/23 04:17:44;;;;;;;29.50;21.02;;;;;;;7.02;99.27;100678.31;5093082;28;20055;-77
2022/04/23 04:20:14;;;;;;;34.28;23.65;;;;;;;6.95;99.66;100672.66;5075691;28;20657;-77
2022/04/23 04:22:40;;;;;;;31.55;22.20;;;;;;;6.91;99.95;100673.84;5075344;28;20039;-77
2022/04/23 04:25:07;;;;;;;27.83;21.77;;;;;;;6.87;100.00;100669.78;5093028;28;20100;-76
2022/04/23 04:27:33;;;;;;;33.45;22.65;;;;;;;6.85;100.00;100669.03;5093297;28;20029;-75
2022/04/23 04:30:00;;;;;;;31.27;21.13;;;;;;;6.80;100.00;100671.22;5093102;28;20043;-76
2022/04/23 04:32:25;;;;;;;30.08;22.15;;;;;;;6.79;100.00;100669.50;5092830;28;20115;-75
2022/04/23 04:34:51;;;;;;;30.58;23.25;;;;;;;6.80;100.00;100661.47;5093240;28;20401;-77
2022/04/23 04:37:16;;;;;;;29.42;22.10;;;;;;;6.78;100.00;100668.69;5092716;28;20043;-75
2022/04/23 04:39:42;;;;;;;28.92;22.55;;;;;;;6.77;100.00;100669.63;5092897;28;20060;-76
2022/04/23 04:42:09;;;;;;;31.52;23.33;;;;;;;6.74;100.00;100663.75;5057362;28;20028;-76
2022/04/23 04:44:36;;;;;;;31.55;23.08;;;;;;;6.71;100.00;100664.81;5092663;28;20096;-75
2022/04/23 04:47:01;;;;;;;32.42;23.65;;;;;;;6.75;100.00;100673.34;5074419;28;20032;-76
2022/04/23 04:49:27;;;;;;;30.10;23.00;;;;;;;6.78;100.00;100670.50;5074457;28;20120;-76
2022/04/23 04:51:53;;;;;;;32.75;24.38;;;;;;;6.80;100.00;100672.03;5092435;28;20055;-79
2022/04/23 04:54:21;;;;;;;29.98;23.45;;;;;;;6.83;100.00;100670.97;5092560;28;20055;-76
2022/04/23 04:56:49;;;;;;;35.08;24.58;;;;;;;6.88;100.00;100671.44;5092414;28;20067;-76
2022/04/23 04:59:15;;;;;;;31.45;24.00;;;;;;;6.93;100.00;100671.94;5092556;28;20032;-76
2022/04/23 05:01:40;;;;;;;31.73;23.48;;;;;;;7.01;100.00;100677.47;5092176;28;20038;-75
2022/04/23 05:04:06;;;;;;;32.17;23.75;;;;;;;7.04;100.00;100679.03;5092233;28;20028;-76
2022/04/23 05:06:31;;;;;;;33.25;23.73;;;;;;;7.06;100.00;100679.75;5092653;28;20460;-76
2022/04/23 05:08:57;;;;;;;31.58;22.65;;;;;;;7.09;100.00;100676.88;5091801;28;20142;-77
2022/04/23 05:11:22;;;;;;;31.83;23.48;;;;;;;7.13;100.00;100683.59;5092425;28;20472;-76
2022/04/23 05:13:48;;;;;;;29.90;22.92;;;;;;;7.17;100.00;100678.91;5092489;28;20036;-76
2022/04/23 05:16:13;;;;;;;30.75;22.85;;;;;;;7.18;100.00;100685.88;5092601;28;20341;-76
2022/04/23 05:18:39;;;;;;;32.95;24.55;;;;;;;7.23;100.00;100687.19;5073711;28;20032;-76
2022/04/23 05:21:04;;;;;;;31.10;23.67;;;;;;;7.28;100.00;100686.84;5092224;28;20028;-76
2022/04/23 05:23:30;;;;;;;28.17;23.38;;;;;;;7.32;100.00;100690.94;5091855;28;20498;-76
2022/04/23 05:25:56;;;;;;;32.20;24.67;;;;;;;7.37;100.00;100691.41;5074025;28;20062;-81
2022/04/23 05:28:22;;;;;;;28.48;23.40;;;;;;;7.42;100.00;100691.06;5092056;28;20444;-76
2022/04/23 05:30:47;;;;;;;32.03;23.05;;;;;;;7.47;100.00;100693.34;5092115;28;20028;-75
2022/04/23 05:33:13;;;;;;;32.75;24.10;;;;;;;7.52;100.00;100685.84;5092100;28;20039;-75
2022/04/23 05:35:38;;;;;;;30.73;23.90;;;;;;;7.57;100.00;100691.63;5092026;28;20036;-75
2022/04/23 05:38:05;;;;;;;33.38;25.33;;;;;;;7.62;100.00;100688.63;5091834;28;20032;-77
2022/04/23 05:40:30;;;;;;;32.80;24.25;;;;;;;7.67;100.00;100687.25;5092041;28;20106;-76
2022/04/23 05:42:58;;;;;;;29.92;23.42;;;;;;;7.72;100.00;100693.03;5091821;28;20070;-83
2022/04/23 05:45:27;;;;;;;30.67;22.80;;;;;;;7.79;99.69;100689.88;5092716;28;20057;-76
2022/04/23 05:47:53;;;;;;;33.10;23.70;;;;;;;7.86;99.66;100694.56;5092459;28;20035;-76
2022/04/23 05:50:19;;;;;;;29.67;23.40;;;;;;;7.93;99.35;100697.56;5092588;28;20036;-77
2022/04/23 05:52:44;;;;;;;29.85;22.80;;;;;;;8.00;98.72;100698.75;5092706;28;20460;-77
2022/04/23 05:55:10;;;;;;;27.65;22.70;;;;;;;8.08;97.99;100703.41;5074518;28;20189;-76
2022/04/23 05:57:36;;;;;;;28.45;22.92;;;;;;;8.19;97.40;100698.06;5092515;28;20035;-76
2022/04/23 06:00:07;;;;;;;27.95;22.00;;;;;;;8.26;96.53;100701.06;5092668;28;20036;-77
2022/04/23 06:02:33;;;;;;;29.73;22.98;;;;;;;8.33;96.29;100702.22;5093082;28;20043;-76
2022/04/23 06:04:59;;;;;;;28.45;23.20;;;;;;;8.41;96.13;100701.59;5092480;28;20032;-81
2022/04/23 06:07:24;;;;;;;29.70;22.17;;;;;;;8.51;96.13;100696.38;5092266;28;20059;-77
2022/04/23 06:09:50;;;;;;;27.77;21.63;;;;;;;8.61;95.92;100703.44;5073994;28;20085;-76
2022/04/23 06:12:15;;;;;;;32.35;22.17;;;;;;;8.71;95.14;100702.66;5092653;28;20119;-76
2022/04/23 06:14:41;;;;;;;26.10;21.10;;;;;;;8.82;93.91;100702.56;5092926;28;20112;-76
2022/04/23 06:17:11;;;;;;;24.23;20.90;;;;;;;8.93;93.02;100701.66;5074385;28;20032;-77
2022/04/23 06:19:37;;;;;;;27.10;21.85;;;;;;;9.06;92.75;100704.09;5092878;28;20043;-77
2022/04/23 06:22:03;;;;;;;24.10;20.58;;;;;;;9.16;91.98;100703.16;5074742;28;20379;-83
2022/04/23 06:24:29;;;;;;;27.88;20.10;;;;;;;9.29;91.36;100700.28;5092683;28;20028;-78
2022/04/23 06:26:54;;;;;;;25.98;21.13;;;;;;;9.39;90.15;100688.84;5093304;28;20024;-77
2022/04/23 06:29:19;;;;;;;25.05;21.20;;;;;;;9.51;89.63;100696.59;5092270;28;20101;-77
2022/04/23 06:31:45;;;;;;;22.80;19.90;;;;;;;9.62;89.30;100692.13;5095667;28;20046;-77
2022/04/23 06:34:10;;;;;;;28.80;20.00;;;;;;;9.74;88.36;100690.22;5095901;28;20059;-77
2022/04/23 06:36:36;;;;;;;26.08;20.05;;;;;;;9.82;87.31;100682.38;5096782;28;20428;-77
2022/04/23 06:39:03;;;;;;;23.27;19.70;;;;;;;9.94;87.52;100688.41;5096463;28;20044;-76
2022/04/23 06:41:28;;;;;;;25.90;19.20;;;;;;;10.01;86.07;100678.91;5096300;28;20032;-77
2022/04/23 06:43:54;;;;;;;20.73;18.50;;;;;;;10.11;85.25;100692.22;5096582;28;20104;-77
2022/04/23 06:46:19;;;;;;;22.08;17.48;;;;;;;10.16;84.58;100689.97;5077710;28;20084;-76
2022/04/23 06:48:44;;;;;;;22.77;18.35;;;;;;;10.30;85.10;100683.38;5095926;28;20028;-76
2022/04/23 06:51:10;;;;;;;25.20;18.45;;;;;;;10.40;84.88;100679.78;5096006;28;20035;-76
2022/04/23 06:53:36;;;;;;;21.65;17.35;;;;;;;10.51;83.97;100688.56;5096595;28;20473;-74
2022/04/23 06:56:03;;;;;;;22.50;17.45;;;;;;;10.56;82.38;100683.66;5095558;28;20024;-76
2022/04/23 06:58:29;;;;;;;20.90;17.65;;;;;;;10.63;81.83;100681.25;5095563;28;20064;-74
2022/04/23 07:00:54;;;;;;;20.92;17.48;;;;;;;10.73;82.30;100687.41;5095727;28;20117;-76
2022/04/23 07:03:20;;;;;;;19.75;16.75;;;;;;;10.83;81.61;100677.56;5095491;28;20052;-75
2022/04/23 07:05:46;;;;;;;18.20;16.27;;;;;;;10.94;81.37;100677.41;5096149;28;20032;-77
2022/04/23 07:08:12;;;;;;;20.40;16.88;;;;;;;11.03;80.07;100672.16;5060986;28;20059;-73
2022/04/23 07:10:38;;;;;;;20.00;15.98;;;;;;;11.10;79.65;100670.59;5095415;28;20036;-74
2022/04/23 07:13:04;;;;;;;18.90;15.40;;;;;;;11.24;79.73;100680.78;5095253;28;20457;-76
2022/04/23 07:15:29;;;;;;;19.33;16.02;;;;;;;11.34;78.24;100672.72;5096042;28;20068;-74
2022/04/23 07:17:56;;;;;;;18.67;15.93;;;;;;;11.43;77.41;100673.66;5095414;28;20534;-74
2022/04/23 07:20:21;;;;;;;17.63;15.13;;;;;;;11.46;76.24;100674.22;5095375;28;20094;-76
2022/04/23 07:25:36;;;;;;;17.48;15.43;;;;;;;11.65;76.62;100670.59;5095666;28;20078;-74
2022/04/23 07:28:02;;;;;;;18.17;16.27;;;;;;;11.79;75.50;100666.59;5095236;28;20116;-74
2022/04/23 07:30:29;;;;;;;18.40;15.45;;;;;;;11.93;75.29;100673.25;5095319;28;20031;-75
2022/04/23 07:32:56;;;;;;;20.45;15.48;;;;;;;12.08;74.07;100664.72;5094910;28;20032;-75
2022/04/23 07:38:15;;;;;;;21.17;15.10;;;;;;;12.20;72.36;100649.31;5095529;28;20446;-78
2022/04/23 07:40:41;;;;;;;17.90;14.00;;;;;;;12.34;73.08;100654.91;5095456;28;20032;-77
2022/04/23 07:43:12;;;;;;;16.83;15.02;;;;;;;12.51;73.63;100655.06;5096693;28;20070;-76
2022/04/23 07:45:43;;;;;;;17.75;14.63;;;;;;;12.66;72.27;100653.47;5095473;28;20073;-77
2022/04/23 07:48:10;;;;;;;20.65;14.32;;;;;;;12.81;71.93;100653.75;5095217;28;20028;-75
2022/04/23 07:50:37;;;;;;;17.23;14.30;;;;;;;12.93;70.79;100648.09;5095150;28;20071;-77
2022/04/23 07:53:03;;;;;;;19.77;14.70;;;;;;;13.00;70.38;100644.66;5059991;28;20060;-74
2022/04/23 07:55:38;;;;;;;17.88;14.10;;;;;;;13.16;68.69;100654.56;5094852;28;20031;-74
2022/04/23 07:58:05;;;;;;;19.17;14.75;;;;;;;13.34;68.94;100651.81;5096162;28;20461;-75
2022/04/23 08:00:31;;;;;;;18.73;14.45;;;;;;;13.44;68.51;100646.34;5095734;28;20043;-77
2022/04/23 08:02:58;;;;;;;17.25;14.50;;;;;;;13.65;68.09;100640.56;5095449;28;20483;-76
2022/04/23 08:05:23;;;;;;;16.20;14.50;;;;;;;13.76;66.15;100639.41;5094911;28;20108;-77
2022/04/23 08:07:49;;;;;;;16.75;13.57;;;;;;;13.95;66.28;100642.78;5094362;28;20036;-76
2022/04/23 08:10:14;;;;;;;18.40;14.02;;;;;;;14.13;66.04;100651.47;5095217;28;20411;-84
2022/04/23 08:12:40;;;;;;;18.08;15.07;;;;;;;14.45;64.86;100650.63;5096403;28;20032;-74
2022/04/23 08:15:06;;;;;;;16.08;13.77;;;;;;;14.86;64.81;100644.38;5094463;28;20322;-76
2022/04/23 08:17:32;;;;;;;15.18;13.57;;;;;;;14.94;61.26;100646.19;5093793;28;20063;-74
2022/04/23 08:19:58;;;;;;;18.40;14.30;;;;;;;15.08;61.74;100632.09;5093891;28;20047;-74
2022/04/23 08:22:24;;;;;;;15.40;13.60;;;;;;;15.40;60.96;100635.63;5093931;28;20028;-75
2022/04/23 08:24:49;;;;;;;16.08;13.98;;;;;;;15.76;61.31;100634.25;5076288;28;20040;-74
2022/04/23 08:27:15;;;;;;;16.10;14.10;;;;;;;15.99;58.44;100627.06;5094219;28;20375;-76
2022/04/23 08:32:24;;;;;;;19.65;13.65;;;;;;;16.15;56.75;100623.41;5094581;28;20089;-74
2022/04/23 08:34:50;;;;;;;17.88;13.60;;;;;;;16.39;57.22;100614.31;5093991;28;20066;-74
2022/04/23 08:37:16;;;;;;;15.43;13.80;;;;;;;16.49;55.50;100622.06;5076015;28;20035;-72
2022/04/23 08:39:42;;;;;;;17.08;13.82;;;;;;;16.19;56.27;100618.50;5093542;28;20433;-74
2022/04/23 08:42:09;;;;;;;15.95;14.20;;;;;;;16.17;56.54;100616.00;5076131;28;20032;-74
2022/04/23 08:44:40;;;;;;;22.20;13.38;;;;;;;16.22;56.29;100618.16;5093876;28;20180;-74
2022/04/23 08:47:07;;;;;;;21.38;14.32;;;;;;;16.51;56.36;100617.38;5093829;28;20028;-72
2022/04/23 08:49:38;;;;;;;15.13;13.52;;;;;;;16.84;55.49;100613.47;5075258;28;20039;-73
2022/04/23 08:52:43;;;;;;;19.17;13.68;;;;;;;17.24;54.94;100620.25;5093625;28;20536;-73
2022/04/23 08:55:14;;;;;;;14.85;13.35;;;;;;;17.21;52.67;100622.47;5052798;28;20040;-74
2022/04/23 08:57:41;;;;;;;;;;;;;;;17.30;52.25;100615.97;5077036;28;20035;-74
2022/04/23 09:00:08;;;;;;;24.60;13.18;;;;;;;17.24;49.99;100620.25;5093674;28;19912;-73
2022/04/23 09:02:35;;;;;;;15.25;13.50;;;;;;;17.63;51.92;100615.53;5093470;28;20055;-73
2022/04/23 09:05:01;;;;;;;14.73;12.82;;;;;;;18.32;49.08;100614.91;5093482;28;20051;-73
2022/04/23 09:07:29;;;;;;;20.83;13.30;;;;;;;19.09;46.03;100606.88;5093618;28;20455;-72
2022/04/23 09:09:55;;;;;;;14.00;12.40;;;;;;;19.80;46.05;100608.38;5075036;28;20044;-72
2022/04/23 09:12:25;;;;;;;19.08;13.07;;;;;;;20.04;42.98;100606.13;5093164;28;20040;-72
2022/04/23 09:15:04;;;;;;;15.32;13.25;;;;;;;20.44;42.85;100598.81;5093574;28;20058;-72
2022/04/23 09:25:46;;;;;;;13.02;11.25;;;;;;;20.85;42.49;100604.16;5093206;28;20043;-72
2022/04/23 09:28:20;;;;;;;16.42;11.88;;;;;;;20.51;41.50;100606.06;5074833;28;20043;-73
2022/04/23 09:30:48;;;;;;;15.85;12.38;;;;;;;20.80;43.48;100604.00;5092820;28;20036;-72
2022/04/23 09:33:14;;;;;;;16.13;11.82;;;;;;;20.31;43.12;100612.34;5092917;28;20046;-73
2022/04/23 09:36:03;;;;;;;17.10;12.73;;;;;;;18.90;45.04;100610.34;5092509;28;20024;-73
2022/04/23 09:38:29;;;;;;;13.70;12.30;;;;;;;19.17;44.92;100609.44;5092893;28;20492;-73
2022/04/23 09:40:57;;;;;;;19.27;12.48;;;;;;;18.46;46.90;100606.94;5092718;28;20024;-74
2022/04/23 09:43:30;;;;;;;15.90;12.32;;;;;;;18.61;47.32;100606.81;5092937;28;20052;-74
2022/04/23 09:46:01;;;;;;;13.70;12.00;;;;;;;18.46;46.29;100615.03;5058112;28;20032;-76
2022/04/23 09:48:26;;;;;;;15.73;12.73;;;;;;;18.28;48.00;100607.44;5093174;28;20034;-80
2022/04/23 09:50:51;;;;;;;17.15;11.75;;;;;;;18.80;46.97;100614.19;5093012;28;20107;-76
2022/04/23 09:53:18;;;;;;;14.18;12.77;;;;;;;18.93;45.87;100604.53;5093175;28;20111;-70
2022/04/23 09:55:45;;;;;;;19.98;12.32;;;;;;;18.35;45.96;100611.00;5092513;28;20371;-73
2022/04/23 09:58:13;;;;;;;14.10;11.73;;;;;;;18.41;47.01;100612.09;5092887;28;20047;-72
2022/04/23 10:00:41;;;;;;;15.45;12.80;;;;;;;18.11;47.06;100606.88;5093405;28;20452;-73
2022/04/23 10:03:07;;;;;;;17.80;13.30;;;;;;;18.02;47.95;100608.88;5092829;28;20024;-72
2022/04/23 10:05:39;;;;;;;15.73;13.00;;;;;;;17.61;47.65;100609.47;5092102;28;20392;-73
2022/04/23 10:08:16;;;;;;;17.20;13.23;;;;;;;17.50;48.85;100607.31;5092910;28;20071;-72
2022/04/23 10:10:49;;;;;;;16.92;13.13;;;;;;;17.88;47.97;100607.88;5092853;28;20092;-73
2022/04/23 10:13:16;;;;;;;21.38;13.45;;;;;;;18.03;48.66;100605.16;5092711;28;20122;-70
2022/04/23 10:15:46;;;;;;;15.05;13.00;;;;;;;18.13;48.60;100602.97;5092838;28;20028;-70
2022/04/23 10:18:12;;;;;;;18.63;13.18;;;;;;;18.62;48.19;100601.25;5093231;28;20040;-70
2022/04/23 10:20:52;;;;;;;13.25;11.88;;;;;;;20.64;44.32;100597.13;5092749;28;20032;-71
2022/04/23 10:23:43;;;;;;;14.35;12.85;;;;;;;20.91;40.50;100606.84;5092974;28;20024;-80
2022/04/23 10:26:23;;;;;;;14.52;12.13;;;;;;;20.74;40.80;100601.06;5092936;28;20039;-78
2022/04/23 10:28:50;;;;;;;14.10;12.60;;;;;;;21.34;40.66;100596.47;5092726;28;20025;-72
2022/04/23 10:31:16;;;;;;;13.52;11.48;;;;;;;22.07;39.08;100597.91;5092641;28;20502;-72
2022/04/23 10:33:46;;;;;;;16.20;11.63;;;;;;;21.51;39.72;100602.25;5093407;28;20081;-72
2022/04/23 10:36:13;;;;;;;15.52;11.52;;;;;;;20.23;42.31;100599.88;5092785;28;20031;-74
2022/04/23 10:38:51;;;;;;;14.38;11.90;;;;;;;19.37;44.32;100589.78;5092852;28;20024;-75
2022/04/23 10:41:19;;;;;;;17.60;12.13;;;;;;;18.56;46.61;100602.03;5093566;28;20444;-75
2022/04/23 10:43:46;;;;;;;15.30;12.50;;;;;;;18.80;46.06;100599.91;5092816;28;20494;-74
2022/04/23 10:46:37;;;;;;;15.40;12.82;;;;;;;19.45;44.27;100592.31;5093558;28;20044;-74
2022/04/23 10:49:13;;;;;;;15.93;12.90;;;;;;;19.40;44.36;100593.94;5092283;28;20027;-71
2022/04/23 10:51:55;;;;;;;17.83;12.35;;;;;;;18.68;45.70;100595.06;5091839;28;20510;-72
2022/04/23 10:54:40;;;;;;;13.45;12.05;;;;;;;18.22;47.19;100598.25;5092233;28;20085;-70
2022/04/23 10:57:07;;;;;;;18.48;13.27;;;;;;;18.57;47.84;100584.84;5073840;28;20075;-69
2022/04/23 10:59:43;;;;;;;15.43;12.88;;;;;;;19.45;45.93;100577.97;5092567;28;20302;-70
2022/04/23 11:02:18;;;;;;;15.27;12.48;;;;;;;20.64;43.49;100570.91;5092046;28;20032;-68
2022/04/23 11:13:29;;;;;;;16.07;12.23;;;;;;;22.60;38.63;100580.31;5093121;28;20089;-76
2022/04/23 11:16:16;;;;;;;18.25;12.35;;;;;;;22.90;38.15;100580.41;5093056;28;20020;-79
2022/04/23 11:18:43;;;;;;;15.18;11.35;;;;;;;23.42;36.43;100566.38;5096801;28;20051;-77
2022/04/23 11:21:16;;;;;;;16.02;11.80;;;;;;;23.94;35.27;100566.66;5095985;28;20397;-73
2022/04/23 11:23:45;;;;;;;12.57;11.27;;;;;;;24.47;35.95;100569.50;5080526;28;20569;-72
2022/04/23 11:26:12;;;;;;;23.35;12.60;;;;;;;24.24;34.08;100563.03;5078274;28;20123;-73
2022/04/23 11:28:42;;;;;;;14.57;12.00;;;;;;;24.18;33.88;100572.09;5064152;28;20028;-72
2022/04/23 11:31:12;;;;;;;13.97;12.47;;;;;;;24.18;33.85;100563.13;5100996;28;20460;-72
2022/04/23 11:33:50;;;;;;;15.13;12.23;;;;;;;23.93;35.08;100564.16;5095349;28;20028;-74
2022/04/23 11:36:16;;;;;;;15.50;12.07;;;;;;;23.45;34.96;100556.97;5095396;28;20032;-73
2022/04/23 11:38:42;;;;;;;13.40;10.57;;;;;;;23.55;35.85;100560.75;5095201;28;20043;-82
2022/04/23 11:41:08;;;;;;;12.98;11.68;;;;;;;23.95;35.09;100556.63;5094868;28;20028;-72